Harvard, Nebraska
Current Conditions -  °F | °C
As of 10:01 AM on Sunday 21 Dec 2014 (Local Time) from KHSI Reporting Station
Moderate Fog Moderate Fog  
Wind Chill: 25°   Ceiling: 200
Heat Index: 34°   Visibility: 0.5mi
Dew Point: 33°   Wind: 13mph
Humidity: 96%   Direction: 190°S
Pressure: 29.77"   Gusts: NA
Location:  40.62°N, 98.1°W
Report Text: KHSI 211601Z AUTO 19011KT 1/2SM FG OVC002 01/01 A2977 RMK AO2 T00110006
Loading
Personal Weather Stations






























Interactive Weather Map New forecast layout! Learn more

10-Day Weather Forecast

Advertisements
Track Severe Weather on mobile